sensor_id;sensor_type;location;lat;lon;timestamp;temperature;humidity
35613;DHT22;22054;51.646;7.078;2023-08-07T00:00:43;13.80;99.90
35613;DHT22;22054;51.646;7.078;2023-08-07T00:03:09;13.80;99.90
35613;DHT22;22054;51.646;7.078;2023-08-07T00:05:36;13.80;99.90
35613;DHT22;22054;51.646;7.078;2023-08-07T00:08:02;13.90;99.90
35613;DHT22;22054;51.646;7.078;2023-08-07T00:10:28;13.90;99.90
35613;DHT22;22054;51.646;7.078;2023-08-07T00:12:55;13.90;99.90
35613;DHT22;22054;51.646;7.078;2023-08-07T00:15:21;13.80;99.90
35613;DHT22;22054;51.646;7.078;2023-08-07T00:17:47;13.90;99.90
35613;DHT22;22054;51.646;7.078;2023-08-07T00:20:13;13.90;99.90
35613;DHT22;22054;51.646;7.078;2023-08-07T00:22:39;14.00;99.90
35613;DHT22;22054;51.646;7.078;2023-08-07T00:25:05;13.90;99.90
35613;DHT22;22054;51.646;7.078;2023-08-07T00:27:31;14.00;99.90
35613;DHT22;22054;51.646;7.078;2023-08-07T00:29:57;13.90;99.90
35613;DHT22;22054;51.646;7.078;2023-08-07T00:32:23;13.90;99.90
35613;DHT22;22054;51.646;7.078;2023-08-07T00:34:49;13.90;99.90
35613;DHT22;22054;51.646;7.078;2023-08-07T00:37:15;13.90;99.90
35613;DHT22;22054;51.646;7.078;2023-08-07T00:39:40;13.90;99.90
35613;DHT22;22054;51.646;7.078;2023-08-07T00:42:09;13.90;99.90
35613;DHT22;22054;51.646;7.078;2023-08-07T00:44:35;13.90;99.90
35613;DHT22;22054;51.646;7.078;2023-08-07T00:47:00;14.00;99.90
35613;DHT22;22054;51.646;7.078;2023-08-07T00:49:27;13.90;99.90
35613;DHT22;22054;51.646;7.078;2023-08-07T00:55:39;13.90;99.90
35613;DHT22;22054;51.646;7.078;2023-08-07T00:58:05;13.90;99.90
35613;DHT22;22054;51.646;7.078;2023-08-07T01:00:31;13.90;99.90
35613;DHT22;22054;51.646;7.078;2023-08-07T01:02:57;14.00;99.90
35613;DHT22;22054;51.646;7.078;2023-08-07T01:05:24;14.00;99.90
35613;DHT22;22054;51.646;7.078;2023-08-07T01:07:53;14.00;99.90
35613;DHT22;22054;51.646;7.078;2023-08-07T01:10:30;13.90;99.90
35613;DHT22;22054;51.646;7.078;2023-08-07T01:19:22;13.80;99.90
35613;DHT22;22054;51.646;7.078;2023-08-07T01:22:12;13.70;99.90
35613;DHT22;22054;51.646;7.078;2023-08-07T01:24:41;13.70;99.90
35613;DHT22;22054;51.646;7.078;2023-08-07T01:27:35;13.70;99.90
35613;DHT22;22054;51.646;7.078;2023-08-07T01:30:09;13.50;99.90
35613;DHT22;22054;51.646;7.078;2023-08-07T01:32:42;13.60;99.90
35613;DHT22;22054;51.646;7.078;2023-08-07T01:35:30;13.60;99.90
35613;DHT22;22054;51.646;7.078;2023-08-07T01:37:59;13.60;99.90
35613;DHT22;22054;51.646;7.078;2023-08-07T01:40:28;13.60;99.90
35613;DHT22;22054;51.646;7.078;2023-08-07T01:42:54;13.70;99.90
35613;DHT22;22054;51.646;7.078;2023-08-07T01:45:28;13.70;99.90
35613;DHT22;22054;51.646;7.078;2023-08-07T01:47:54;13.70;99.90
35613;DHT22;22054;51.646;7.078;2023-08-07T01:50:21;13.60;99.90
35613;DHT22;22054;51.646;7.078;2023-08-07T01:52:47;13.60;99.90
35613;DHT22;22054;51.646;7.078;2023-08-07T01:55:14;13.60;99.90
35613;DHT22;22054;51.646;7.078;2023-08-07T01:57:41;13.60;99.90
35613;DHT22;22054;51.646;7.078;2023-08-07T02:00:07;13.50;99.90
35613;DHT22;22054;51.646;7.078;2023-08-07T02:02:34;13.50;99.90
35613;DHT22;22054;51.646;7.078;2023-08-07T02:05:01;13.60;99.90
35613;DHT22;22054;51.646;7.078;2023-08-07T02:07:27;13.60;99.90
35613;DHT22;22054;51.646;7.078;2023-08-07T02:09:53;13.60;99.90
35613;DHT22;22054;51.646;7.078;2023-08-07T02:12:18;13.50;99.90
35613;DHT22;22054;51.646;7.078;2023-08-07T02:14:44;13.60;99.90
35613;DHT22;22054;51.646;7.078;2023-08-07T02:17:10;13.50;99.90
35613;DHT22;22054;51.646;7.078;2023-08-07T02:19:35;13.40;99.90
35613;DHT22;22054;51.646;7.078;2023-08-07T02:22:02;13.60;99.90
35613;DHT22;22054;51.646;7.078;2023-08-07T02:24:28;13.60;99.90
35613;DHT22;22054;51.646;7.078;2023-08-07T02:26:54;13.50;99.90
35613;DHT22;22054;51.646;7.078;2023-08-07T02:29:19;13.60;99.90
35613;DHT22;22054;51.646;7.078;2023-08-07T02:31:45;13.60;99.90
35613;DHT22;22054;51.646;7.078;2023-08-07T02:34:11;13.70;99.90
35613;DHT22;22054;51.646;7.078;2023-08-07T02:36:37;13.70;99.90
35613;DHT22;22054;51.646;7.078;2023-08-07T02:39:03;13.60;99.90
35613;DHT22;22054;51.646;7.078;2023-08-07T02:41:29;13.60;99.90
35613;DHT22;22054;51.646;7.078;2023-08-07T02:43:57;13.70;99.90
35613;DHT22;22054;51.646;7.078;2023-08-07T02:46:23;13.70;99.90
35613;DHT22;22054;51.646;7.078;2023-08-07T02:48:49;13.70;99.90
35613;DHT22;22054;51.646;7.078;2023-08-07T02:51:14;13.90;99.90
35613;DHT22;22054;51.646;7.078;2023-08-07T02:53:40;13.70;99.90
35613;DHT22;22054;51.646;7.078;2023-08-07T02:56:06;13.70;99.90
35613;DHT22;22054;51.646;7.078;2023-08-07T02:58:32;13.70;99.90
35613;DHT22;22054;51.646;7.078;2023-08-07T03:01:03;13.70;99.90
35613;DHT22;22054;51.646;7.078;2023-08-07T03:03:31;13.70;99.90
35613;DHT22;22054;51.646;7.078;2023-08-07T03:05:57;13.70;99.90
35613;DHT22;22054;51.646;7.078;2023-08-07T03:08:23;13.70;99.90
35613;DHT22;22054;51.646;7.078;2023-08-07T03:10:57;13.70;99.90
35613;DHT22;22054;51.646;7.078;2023-08-07T03:13:23;13.60;99.90
35613;DHT22;22054;51.646;7.078;2023-08-07T03:15:50;13.60;99.90
35613;DHT22;22054;51.646;7.078;2023-08-07T03:18:16;13.40;99.90
35613;DHT22;22054;51.646;7.078;2023-08-07T03:20:43;13.60;99.90
35613;DHT22;22054;51.646;7.078;2023-08-07T03:23:09;13.60;99.90
35613;DHT22;22054;51.646;7.078;2023-08-07T03:25:35;13.50;99.90
35613;DHT22;22054;51.646;7.078;2023-08-07T03:28:01;13.60;99.90
35613;DHT22;22054;51.646;7.078;2023-08-07T03:30:28;13.60;99.90
35613;DHT22;22054;51.646;7.078;2023-08-07T03:32:54;13.50;99.90
35613;DHT22;22054;51.646;7.078;2023-08-07T03:35:19;13.40;99.90
35613;DHT22;22054;51.646;7.078;2023-08-07T03:37:45;13.50;99.90
35613;DHT22;22054;51.646;7.078;2023-08-07T03:40:11;13.50;99.90
35613;DHT22;22054;51.646;7.078;2023-08-07T03:42:37;13.50;99.90
35613;DHT22;22054;51.646;7.078;2023-08-07T03:45:03;13.50;99.90
35613;DHT22;22054;51.646;7.078;2023-08-07T03:47:29;13.50;99.90
35613;DHT22;22054;51.646;7.078;2023-08-07T03:49:54;13.50;99.90
35613;DHT22;22054;51.646;7.078;2023-08-07T03:52:20;13.50;99.90
35613;DHT22;22054;51.646;7.078;2023-08-07T03:54:46;13.50;99.90
35613;DHT22;22054;51.646;7.078;2023-08-07T03:57:11;13.50;99.90
35613;DHT22;22054;51.646;7.078;2023-08-07T03:59:37;13.50;99.90
35613;DHT22;22054;51.646;7.078;2023-08-07T04:02:03;13.50;99.90
35613;DHT22;22054;51.646;7.078;2023-08-07T04:04:30;13.50;99.90
35613;DHT22;22054;51.646;7.078;2023-08-07T04:06:55;13.50;99.90
35613;DHT22;22054;51.646;7.078;2023-08-07T04:09:21;13.50;99.90
35613;DHT22;22054;51.646;7.078;2023-08-07T04:11:47;13.50;99.90
35613;DHT22;22054;51.646;7.078;2023-08-07T04:14:12;13.50;99.90
35613;DHT22;22054;51.646;7.078;2023-08-07T04:16:38;13.50;99.90
35613;DHT22;22054;51.646;7.078;2023-08-07T04:19:05;13.40;99.90
35613;DHT22;22054;51.646;7.078;2023-08-07T04:21:33;13.40;99.90
35613;DHT22;22054;51.646;7.078;2023-08-07T04:23:59;13.50;99.90
35613;DHT22;22054;51.646;7.078;2023-08-07T04:26:33;13.50;99.90
35613;DHT22;22054;51.646;7.078;2023-08-07T04:28:59;13.40;99.90
35613;DHT22;22054;51.646;7.078;2023-08-07T04:31:25;13.40;99.90
35613;DHT22;22054;51.646;7.078;2023-08-07T04:33:51;13.40;99.90
35613;DHT22;22054;51.646;7.078;2023-08-07T04:36:16;13.40;99.90
35613;DHT22;22054;51.646;7.078;2023-08-07T04:38:42;13.40;99.90
35613;DHT22;22054;51.646;7.078;2023-08-07T04:41:08;13.40;99.90
35613;DHT22;22054;51.646;7.078;2023-08-07T04:43:34;13.40;99.90
35613;DHT22;22054;51.646;7.078;2023-08-07T04:46:00;13.30;99.90
35613;DHT22;22054;51.646;7.078;2023-08-07T04:48:26;13.30;99.90
35613;DHT22;22054;51.646;7.078;2023-08-07T04:50:52;13.20;99.90
35613;DHT22;22054;51.646;7.078;2023-08-07T04:53:18;13.30;99.90
35613;DHT22;22054;51.646;7.078;2023-08-07T04:55:43;13.30;99.90
35613;DHT22;22054;51.646;7.078;2023-08-07T04:58:09;13.30;99.90
35613;DHT22;22054;51.646;7.078;2023-08-07T05:00:36;13.30;99.90
35613;DHT22;22054;51.646;7.078;2023-08-07T05:03:02;13.30;99.90
35613;DHT22;22054;51.646;7.078;2023-08-07T05:05:27;13.30;99.90
35613;DHT22;22054;51.646;7.078;2023-08-07T05:07:55;13.30;99.90
35613;DHT22;22054;51.646;7.078;2023-08-07T05:10:20;13.30;99.90
35613;DHT22;22054;51.646;7.078;2023-08-07T05:12:46;13.30;99.90
35613;DHT22;22054;51.646;7.078;2023-08-07T05:15:12;13.40;99.90
35613;DHT22;22054;51.646;7.078;2023-08-07T05:17:38;13.30;99.90
35613;DHT22;22054;51.646;7.078;2023-08-07T05:20:04;13.30;99.90
35613;DHT22;22054;51.646;7.078;2023-08-07T05:22:31;13.20;99.90
35613;DHT22;22054;51.646;7.078;2023-08-07T05:24:56;13.20;99.90
35613;DHT22;22054;51.646;7.078;2023-08-07T05:27:22;13.40;99.90
35613;DHT22;22054;51.646;7.078;2023-08-07T05:29:48;13.20;99.90
35613;DHT22;22054;51.646;7.078;2023-08-07T05:32:14;13.20;99.90
35613;DHT22;22054;51.646;7.078;2023-08-07T05:34:40;13.20;99.90
35613;DHT22;22054;51.646;7.078;2023-08-07T05:37:07;13.40;99.90
35613;DHT22;22054;51.646;7.078;2023-08-07T05:39:34;13.20;99.90
35613;DHT22;22054;51.646;7.078;2023-08-07T05:42:00;13.30;99.90
35613;DHT22;22054;51.646;7.078;2023-08-07T05:44:26;13.30;99.90
35613;DHT22;22054;51.646;7.078;2023-08-07T05:46:53;13.40;99.90
35613;DHT22;22054;51.646;7.078;2023-08-07T05:49:19;13.30;99.90
35613;DHT22;22054;51.646;7.078;2023-08-07T05:51:45;13.30;99.90
35613;DHT22;22054;51.646;7.078;2023-08-07T05:54:11;13.30;99.90
35613;DHT22;22054;51.646;7.078;2023-08-07T05:56:37;13.30;99.90
35613;DHT22;22054;51.646;7.078;2023-08-07T05:59:03;13.40;99.90
35613;DHT22;22054;51.646;7.078;2023-08-07T06:01:29;13.30;99.90
35613;DHT22;22054;51.646;7.078;2023-08-07T06:03:59;13.40;99.90
35613;DHT22;22054;51.646;7.078;2023-08-07T06:06:26;13.40;99.90
35613;DHT22;22054;51.646;7.078;2023-08-07T06:08:54;13.50;99.90
35613;DHT22;22054;51.646;7.078;2023-08-07T06:11:20;13.50;99.90
35613;DHT22;22054;51.646;7.078;2023-08-07T06:13:45;13.60;99.90
35613;DHT22;22054;51.646;7.078;2023-08-07T06:16:11;13.60;99.90
35613;DHT22;22054;51.646;7.078;2023-08-07T06:18:37;13.60;99.90
35613;DHT22;22054;51.646;7.078;2023-08-07T06:21:03;13.70;99.90
35613;DHT22;22054;51.646;7.078;2023-08-07T06:23:35;13.70;99.90
35613;DHT22;22054;51.646;7.078;2023-08-07T06:26:01;13.70;99.90
35613;DHT22;22054;51.646;7.078;2023-08-07T06:28:30;13.70;99.90
35613;DHT22;22054;51.646;7.078;2023-08-07T06:31:09;14.00;99.90
35613;DHT22;22054;51.646;7.078;2023-08-07T06:33:36;13.90;99.90
35613;DHT22;22054;51.646;7.078;2023-08-07T06:36:03;13.90;99.90
35613;DHT22;22054;51.646;7.078;2023-08-07T06:38:30;14.00;99.90
35613;DHT22;22054;51.646;7.078;2023-08-07T06:40:56;14.00;99.90
35613;DHT22;22054;51.646;7.078;2023-08-07T06:43:22;14.00;99.90
35613;DHT22;22054;51.646;7.078;2023-08-07T06:45:55;14.10;99.90
35613;DHT22;22054;51.646;7.078;2023-08-07T06:48:21;14.10;99.90
35613;DHT22;22054;51.646;7.078;2023-08-07T06:50:48;14.30;99.90
35613;DHT22;22054;51.646;7.078;2023-08-07T06:53:15;14.10;99.90
35613;DHT22;22054;51.646;7.078;2023-08-07T06:55:44;14.10;99.90
35613;DHT22;22054;51.646;7.078;2023-08-07T06:58:12;14.10;99.90
35613;DHT22;22054;51.646;7.078;2023-08-07T07:00:38;14.10;99.90
35613;DHT22;22054;51.646;7.078;2023-08-07T07:03:04;14.10;99.90
35613;DHT22;22054;51.646;7.078;2023-08-07T07:05:32;14.10;99.90
35613;DHT22;22054;51.646;7.078;2023-08-07T07:07:58;14.10;99.90
35613;DHT22;22054;51.646;7.078;2023-08-07T07:10:24;14.10;99.90
35613;DHT22;22054;51.646;7.078;2023-08-07T07:12:49;14.10;99.90
35613;DHT22;22054;51.646;7.078;2023-08-07T07:15:15;14.00;99.90
35613;DHT22;22054;51.646;7.078;2023-08-07T07:17:41;14.00;99.90
35613;DHT22;22054;51.646;7.078;2023-08-07T07:20:08;14.00;99.90
35613;DHT22;22054;51.646;7.078;2023-08-07T07:22:36;14.10;99.90
35613;DHT22;22054;51.646;7.078;2023-08-07T07:25:03;14.10;99.90
35613;DHT22;22054;51.646;7.078;2023-08-07T07:27:29;14.10;99.90
35613;DHT22;22054;51.646;7.078;2023-08-07T07:29:55;14.20;99.90
35613;DHT22;22054;51.646;7.078;2023-08-07T07:32:20;14.20;99.90
35613;DHT22;22054;51.646;7.078;2023-08-07T07:34:46;14.20;99.90
35613;DHT22;22054;51.646;7.078;2023-08-07T07:37:13;14.10;99.90
35613;DHT22;22054;51.646;7.078;2023-08-07T07:39:39;14.20;99.90
35613;DHT22;22054;51.646;7.078;2023-08-07T07:42:06;14.20;99.90
35613;DHT22;22054;51.646;7.078;2023-08-07T07:44:32;14.20;99.90
35613;DHT22;22054;51.646;7.078;2023-08-07T07:47:00;14.40;99.90
35613;DHT22;22054;51.646;7.078;2023-08-07T07:49:26;14.40;99.90
35613;DHT22;22054;51.646;7.078;2023-08-07T07:51:52;14.50;99.90
35613;DHT22;22054;51.646;7.078;2023-08-07T07:54:17;14.60;99.90
35613;DHT22;22054;51.646;7.078;2023-08-07T07:56:43;14.50;99.90
35613;DHT22;22054;51.646;7.078;2023-08-07T07:59:09;14.50;99.90
35613;DHT22;22054;51.646;7.078;2023-08-07T08:01:35;14.40;99.90
35613;DHT22;22054;51.646;7.078;2023-08-07T08:04:01;14.40;99.90
35613;DHT22;22054;51.646;7.078;2023-08-07T08:06:27;14.60;99.90
35613;DHT22;22054;51.646;7.078;2023-08-07T08:08:52;14.80;99.90
35613;DHT22;22054;51.646;7.078;2023-08-07T08:11:18;14.60;99.90
35613;DHT22;22054;51.646;7.078;2023-08-07T08:13:44;14.60;99.90
35613;DHT22;22054;51.646;7.078;2023-08-07T08:16:10;14.70;99.90
35613;DHT22;22054;51.646;7.078;2023-08-07T08:18:35;14.70;99.90
35613;DHT22;22054;51.646;7.078;2023-08-07T08:21:01;15.00;99.90
35613;DHT22;22054;51.646;7.078;2023-08-07T08:23:27;14.80;99.90
35613;DHT22;22054;51.646;7.078;2023-08-07T08:25:53;14.80;99.90
35613;DHT22;22054;51.646;7.078;2023-08-07T08:28:18;14.90;99.90
35613;DHT22;22054;51.646;7.078;2023-08-07T08:30:44;14.70;99.90
35613;DHT22;22054;51.646;7.078;2023-08-07T08:33:10;14.80;99.90
35613;DHT22;22054;51.646;7.078;2023-08-07T08:35:38;14.70;99.90
35613;DHT22;22054;51.646;7.078;2023-08-07T08:38:04;14.80;99.90
35613;DHT22;22054;51.646;7.078;2023-08-07T08:40:30;14.80;99.90
35613;DHT22;22054;51.646;7.078;2023-08-07T08:42:57;14.90;99.90
35613;DHT22;22054;51.646;7.078;2023-08-07T08:45:26;15.00;99.90
35613;DHT22;22054;51.646;7.078;2023-08-07T08:47:55;15.20;99.90
35613;DHT22;22054;51.646;7.078;2023-08-07T08:50:26;15.30;99.90
35613;DHT22;22054;51.646;7.078;2023-08-07T08:52:55;15.40;99.90
35613;DHT22;22054;51.646;7.078;2023-08-07T08:55:22;15.50;99.90
35613;DHT22;22054;51.646;7.078;2023-08-07T08:57:48;15.80;99.90
35613;DHT22;22054;51.646;7.078;2023-08-07T09:00:16;15.90;99.90
35613;DHT22;22054;51.646;7.078;2023-08-07T09:02:47;16.20;99.90
35613;DHT22;22054;51.646;7.078;2023-08-07T09:05:18;16.40;99.90
35613;DHT22;22054;51.646;7.078;2023-08-07T09:07:46;16.50;99.90
35613;DHT22;22054;51.646;7.078;2023-08-07T09:10:13;16.60;99.90
35613;DHT22;22054;51.646;7.078;2023-08-07T09:12:42;16.70;99.90
35613;DHT22;22054;51.646;7.078;2023-08-07T09:15:21;16.90;99.90
35613;DHT22;22054;51.646;7.078;2023-08-07T09:17:49;17.20;99.90
35613;DHT22;22054;51.646;7.078;2023-08-07T09:20:16;17.40;99.90
35613;DHT22;22054;51.646;7.078;2023-08-07T09:22:42;17.50;99.90
35613;DHT22;22054;51.646;7.078;2023-08-07T09:25:08;17.50;99.90
35613;DHT22;22054;51.646;7.078;2023-08-07T09:27:36;17.50;99.90
35613;DHT22;22054;51.646;7.078;2023-08-07T09:30:05;17.20;99.90
35613;DHT22;22054;51.646;7.078;2023-08-07T09:32:35;17.10;99.90
35613;DHT22;22054;51.646;7.078;2023-08-07T09:35:06;17.10;99.90
35613;DHT22;22054;51.646;7.078;2023-08-07T09:37:32;17.10;99.90
35613;DHT22;22054;51.646;7.078;2023-08-07T09:40:00;17.40;99.90
35613;DHT22;22054;51.646;7.078;2023-08-07T09:42:30;17.70;99.90
35613;DHT22;22054;51.646;7.078;2023-08-07T09:44:59;18.00;99.90
35613;DHT22;22054;51.646;7.078;2023-08-07T09:47:25;18.20;99.90
35613;DHT22;22054;51.646;7.078;2023-08-07T09:49:54;18.30;99.90
35613;DHT22;22054;51.646;7.078;2023-08-07T09:52:20;17.70;99.90
35613;DHT22;22054;51.646;7.078;2023-08-07T09:54:46;17.00;99.90
35613;DHT22;22054;51.646;7.078;2023-08-07T09:57:13;16.60;99.90
35613;DHT22;22054;51.646;7.078;2023-08-07T09:59:40;16.40;99.90
35613;DHT22;22054;51.646;7.078;2023-08-07T10:02:06;16.40;99.90
35613;DHT22;22054;51.646;7.078;2023-08-07T10:04:34;16.20;99.90
35613;DHT22;22054;51.646;7.078;2023-08-07T10:07:01;16.20;99.90
35613;DHT22;22054;51.646;7.078;2023-08-07T10:09:27;16.20;99.90
35613;DHT22;22054;51.646;7.078;2023-08-07T10:11:54;16.30;99.90
35613;DHT22;22054;51.646;7.078;2023-08-07T10:14:21;16.40;99.90
35613;DHT22;22054;51.646;7.078;2023-08-07T10:16:48;16.80;99.90
35613;DHT22;22054;51.646;7.078;2023-08-07T10:19:14;17.20;99.90
35613;DHT22;22054;51.646;7.078;2023-08-07T10:21:40;17.40;99.90
35613;DHT22;22054;51.646;7.078;2023-08-07T10:24:08;17.50;99.90
35613;DHT22;22054;51.646;7.078;2023-08-07T10:26:37;17.70;99.90
35613;DHT22;22054;51.646;7.078;2023-08-07T10:29:10;17.80;99.90
35613;DHT22;22054;51.646;7.078;2023-08-07T10:31:40;17.80;99.90
35613;DHT22;22054;51.646;7.078;2023-08-07T10:34:08;17.70;99.90
35613;DHT22;22054;51.646;7.078;2023-08-07T10:36:35;17.90;99.90
35613;DHT22;22054;51.646;7.078;2023-08-07T10:39:08;18.30;99.90
35613;DHT22;22054;51.646;7.078;2023-08-07T10:41:45;18.60;99.90
35613;DHT22;22054;51.646;7.078;2023-08-07T10:44:25;19.20;99.90
35613;DHT22;22054;51.646;7.078;2023-08-07T10:46:57;19.30;99.90
35613;DHT22;22054;51.646;7.078;2023-08-07T10:52:12;19.10;99.90
35613;DHT22;22054;51.646;7.078;2023-08-07T10:54:46;19.40;99.90
35613;DHT22;22054;51.646;7.078;2023-08-07T10:57:16;19.70;99.90
35613;DHT22;22054;51.646;7.078;2023-08-07T11:00:05;19.70;99.90
35613;DHT22;22054;51.646;7.078;2023-08-07T11:02:37;19.80;99.90
35613;DHT22;22054;51.646;7.078;2023-08-07T11:05:06;19.90;99.90
35613;DHT22;22054;51.646;7.078;2023-08-07T11:07:32;19.90;99.90
35613;DHT22;22054;51.646;7.078;2023-08-07T11:09:59;20.20;99.90
35613;DHT22;22054;51.646;7.078;2023-08-07T11:12:28;20.00;99.90
35613;DHT22;22054;51.646;7.078;2023-08-07T11:14:55;19.90;99.90
35613;DHT22;22054;51.646;7.078;2023-08-07T11:17:28;20.00;99.90
35613;DHT22;22054;51.646;7.078;2023-08-07T11:19:55;20.40;99.90
35613;DHT22;22054;51.646;7.078;2023-08-07T11:22:21;20.70;99.90
35613;DHT22;22054;51.646;7.078;2023-08-07T11:24:47;20.10;99.90
35613;DHT22;22054;51.646;7.078;2023-08-07T11:27:15;19.70;99.90
35613;DHT22;22054;51.646;7.078;2023-08-07T11:29:40;19.40;99.90
35613;DHT22;22054;51.646;7.078;2023-08-07T11:32:06;19.40;99.90
35613;DHT22;22054;51.646;7.078;2023-08-07T11:34:33;19.60;99.90
35613;DHT22;22054;51.646;7.078;2023-08-07T11:36:59;20.10;99.90
35613;DHT22;22054;51.646;7.078;2023-08-07T11:39:26;20.80;99.90
35613;DHT22;22054;51.646;7.078;2023-08-07T11:41:52;22.50;99.90
35613;DHT22;22054;51.646;7.078;2023-08-07T11:44:21;24.00;99.90
35613;DHT22;22054;51.646;7.078;2023-08-07T11:46:48;25.80;99.90
35613;DHT22;22054;51.646;7.078;2023-08-07T11:49:15;25.80;99.90
35613;DHT22;22054;51.646;7.078;2023-08-07T11:51:41;26.20;99.90
35613;DHT22;22054;51.646;7.078;2023-08-07T11:54:14;27.00;99.10
35613;DHT22;22054;51.646;7.078;2023-08-07T11:56:41;26.40;97.30
35613;DHT22;22054;51.646;7.078;2023-08-07T11:59:08;25.70;97.80
35613;DHT22;22054;51.646;7.078;2023-08-07T12:01:37;24.20;99.60
35613;DHT22;22054;51.646;7.078;2023-08-07T12:06:31;22.30;99.90
35613;DHT22;22054;51.646;7.078;2023-08-07T12:08:57;21.20;99.90
35613;DHT22;22054;51.646;7.078;2023-08-07T12:11:23;20.50;99.90
35613;DHT22;22054;51.646;7.078;2023-08-07T12:13:49;20.20;99.90
35613;DHT22;22054;51.646;7.078;2023-08-07T12:16:17;21.40;99.90
35613;DHT22;22054;51.646;7.078;2023-08-07T12:18:51;22.60;99.90
35613;DHT22;22054;51.646;7.078;2023-08-07T12:21:21;22.80;99.90
35613;DHT22;22054;51.646;7.078;2023-08-07T12:23:51;22.80;99.90
35613;DHT22;22054;51.646;7.078;2023-08-07T12:26:17;23.70;99.90
35613;DHT22;22054;51.646;7.078;2023-08-07T12:28:43;25.20;99.90
35613;DHT22;22054;51.646;7.078;2023-08-07T12:31:09;26.60;98.20
35613;DHT22;22054;51.646;7.078;2023-08-07T12:33:35;27.30;94.70
35613;DHT22;22054;51.646;7.078;2023-08-07T12:36:01;28.20;91.60
35613;DHT22;22054;51.646;7.078;2023-08-07T12:38:27;27.70;90.90
35613;DHT22;22054;51.646;7.078;2023-08-07T12:40:53;26.90;90.70
35613;DHT22;22054;51.646;7.078;2023-08-07T12:43:19;25.70;90.90
35613;DHT22;22054;51.646;7.078;2023-08-07T12:45:45;25.00;94.10
35613;DHT22;22054;51.646;7.078;2023-08-07T12:48:12;25.00;95.30
35613;DHT22;22054;51.646;7.078;2023-08-07T12:50:39;25.40;95.80
35613;DHT22;22054;51.646;7.078;2023-08-07T12:53:05;26.30;95.00
35613;DHT22;22054;51.646;7.078;2023-08-07T12:55:31;26.40;93.10
35613;DHT22;22054;51.646;7.078;2023-08-07T12:57:57;25.40;92.10
35613;DHT22;22054;51.646;7.078;2023-08-07T13:00:25;23.80;94.50
35613;DHT22;22054;51.646;7.078;2023-08-07T13:02:52;23.00;98.10
35613;DHT22;22054;51.646;7.078;2023-08-07T13:05:21;22.10;99.60
35613;DHT22;22054;51.646;7.078;2023-08-07T13:07:47;21.60;99.90
35613;DHT22;22054;51.646;7.078;2023-08-07T13:10:17;22.50;99.20
35613;DHT22;22054;51.646;7.078;2023-08-07T13:12:44;23.80;96.90
35613;DHT22;22054;51.646;7.078;2023-08-07T13:15:14;24.70;95.40
35613;DHT22;22054;51.646;7.078;2023-08-07T13:17:41;25.60;94.20
35613;DHT22;22054;51.646;7.078;2023-08-07T13:20:08;26.30;91.60
35613;DHT22;22054;51.646;7.078;2023-08-07T13:22:36;25.00;93.60
35613;DHT22;22054;51.646;7.078;2023-08-07T13:25:03;23.70;95.10
35613;DHT22;22054;51.646;7.078;2023-08-07T13:27:32;23.00;98.30
35613;DHT22;22054;51.646;7.078;2023-08-07T13:29:58;22.30;97.90
35613;DHT22;22054;51.646;7.078;2023-08-07T13:32:25;21.70;99.90
35613;DHT22;22054;51.646;7.078;2023-08-07T13:34:51;21.00;99.90
35613;DHT22;22054;51.646;7.078;2023-08-07T13:37:17;20.60;99.90
35613;DHT22;22054;51.646;7.078;2023-08-07T13:39:43;19.80;99.90
35613;DHT22;22054;51.646;7.078;2023-08-07T13:42:09;18.70;99.90
35613;DHT22;22054;51.646;7.078;2023-08-07T13:44:38;17.60;99.90
35613;DHT22;22054;51.646;7.078;2023-08-07T13:47:05;16.90;99.90
35613;DHT22;22054;51.646;7.078;2023-08-07T13:49:31;16.70;99.90
35613;DHT22;22054;51.646;7.078;2023-08-07T13:51:57;16.90;99.90
35613;DHT22;22054;51.646;7.078;2023-08-07T13:54:23;17.30;99.90
35613;DHT22;22054;51.646;7.078;2023-08-07T13:56:48;17.70;99.90
35613;DHT22;22054;51.646;7.078;2023-08-07T13:59:15;19.40;99.90
35613;DHT22;22054;51.646;7.078;2023-08-07T14:01:41;20.60;99.90
35613;DHT22;22054;51.646;7.078;2023-08-07T14:04:07;22.70;99.90
35613;DHT22;22054;51.646;7.078;2023-08-07T14:06:33;23.80;99.90
35613;DHT22;22054;51.646;7.078;2023-08-07T14:08:59;23.60;99.90
35613;DHT22;22054;51.646;7.078;2023-08-07T14:11:24;22.30;99.90
35613;DHT22;22054;51.646;7.078;2023-08-07T14:13:57;22.10;99.90
35613;DHT22;22054;51.646;7.078;2023-08-07T14:16:24;22.20;99.90
35613;DHT22;22054;51.646;7.078;2023-08-07T14:18:50;21.20;99.90
35613;DHT22;22054;51.646;7.078;2023-08-07T14:21:16;20.30;99.90
35613;DHT22;22054;51.646;7.078;2023-08-07T14:23:42;19.70;99.90
35613;DHT22;22054;51.646;7.078;2023-08-07T14:26:11;20.50;99.90
35613;DHT22;22054;51.646;7.078;2023-08-07T14:28:39;20.60;99.90
35613;DHT22;22054;51.646;7.078;2023-08-07T14:31:09;20.30;99.90
35613;DHT22;22054;51.646;7.078;2023-08-07T14:33:35;19.90;99.90
35613;DHT22;22054;51.646;7.078;2023-08-07T14:36:01;19.60;99.90
35613;DHT22;22054;51.646;7.078;2023-08-07T14:38:28;19.20;99.90
35613;DHT22;22054;51.646;7.078;2023-08-07T14:40:54;18.90;99.90
35613;DHT22;22054;51.646;7.078;2023-08-07T14:43:20;19.10;99.90
35613;DHT22;22054;51.646;7.078;2023-08-07T14:45:46;19.80;99.90
35613;DHT22;22054;51.646;7.078;2023-08-07T14:48:13;20.10;99.90
35613;DHT22;22054;51.646;7.078;2023-08-07T14:50:40;20.30;99.90
35613;DHT22;22054;51.646;7.078;2023-08-07T14:53:06;20.20;99.90
35613;DHT22;22054;51.646;7.078;2023-08-07T14:55:32;20.00;99.90
35613;DHT22;22054;51.646;7.078;2023-08-07T14:57:58;19.60;99.90
35613;DHT22;22054;51.646;7.078;2023-08-07T15:00:24;19.40;99.90
35613;DHT22;22054;51.646;7.078;2023-08-07T15:02:50;19.40;99.90
35613;DHT22;22054;51.646;7.078;2023-08-07T15:05:16;19.50;99.90
35613;DHT22;22054;51.646;7.078;2023-08-07T15:07:41;20.10;99.90
35613;DHT22;22054;51.646;7.078;2023-08-07T15:10:08;21.30;99.90
35613;DHT22;22054;51.646;7.078;2023-08-07T15:12:34;22.80;99.90
35613;DHT22;22054;51.646;7.078;2023-08-07T15:15:00;24.30;99.90
35613;DHT22;22054;51.646;7.078;2023-08-07T15:17:26;25.70;99.90
35613;DHT22;22054;51.646;7.078;2023-08-07T15:19:52;27.10;99.60
35613;DHT22;22054;51.646;7.078;2023-08-07T15:22:18;28.10;95.30
35613;DHT22;22054;51.646;7.078;2023-08-07T15:24:44;28.00;92.50
35613;DHT22;22054;51.646;7.078;2023-08-07T15:27:09;27.30;91.00
35613;DHT22;22054;51.646;7.078;2023-08-07T15:29:35;26.20;92.50
35613;DHT22;22054;51.646;7.078;2023-08-07T15:32:01;25.30;96.80
35613;DHT22;22054;51.646;7.078;2023-08-07T15:34:27;24.80;95.50
35613;DHT22;22054;51.646;7.078;2023-08-07T15:36:52;24.00;95.90
35613;DHT22;22054;51.646;7.078;2023-08-07T15:39:18;23.40;99.30
35613;DHT22;22054;51.646;7.078;2023-08-07T15:41:44;22.80;99.90
35613;DHT22;22054;51.646;7.078;2023-08-07T15:44:10;22.10;99.90